createdAt,value
2022-08-25T00:01:39.055Z,18.48
2022-08-25T00:04:10.885Z,18.73
2022-08-25T00:06:39.583Z,19.73
2022-08-25T00:09:06.772Z,17.42
2022-08-25T00:11:34.910Z,17.55
2022-08-25T00:14:05.812Z,16.95
2022-08-25T00:16:33.411Z,21.15
2022-08-25T00:19:05.294Z,20.67
2022-08-25T00:21:32.959Z,18.73
2022-08-25T00:24:02.249Z,20.52
2022-08-25T00:26:30.020Z,19.92
2022-08-25T00:29:01.771Z,21.63
2022-08-25T00:31:37.741Z,21.65
2022-08-25T00:34:09.322Z,19.77
2022-08-25T00:36:36.880Z,20.33
2022-08-25T00:39:05.674Z,24.95
2022-08-25T00:41:35.163Z,20.30
2022-08-25T00:44:04.820Z,25.92
2022-08-25T00:46:47.219Z,21.52
2022-08-25T00:49:35.683Z,20.90
2022-08-25T00:52:05.176Z,22.63
2022-08-25T00:54:40.864Z,21.25
2022-08-25T00:57:10.928Z,23.92
2022-08-25T00:59:38.098Z,22.63
2022-08-25T01:02:07.959Z,21.48
2022-08-25T01:04:43.711Z,25.20
2022-08-25T01:07:18.372Z,23.48
2022-08-25T01:09:47.591Z,24.00
2022-08-25T01:12:14.720Z,23.10
2022-08-25T01:14:42.640Z,23.98
2022-08-25T01:17:09.743Z,24.90
2022-08-25T01:19:36.476Z,24.38
2022-08-25T01:22:05.567Z,25.90
2022-08-25T01:24:52.856Z,25.75
2022-08-25T01:27:20.095Z,25.75
2022-08-25T01:29:46.845Z,24.58
2022-08-25T01:32:14.817Z,24.05
2022-08-25T01:34:43.880Z,23.02
2022-08-25T01:37:13.914Z,22.95
2022-08-25T01:39:41.966Z,23.65
2022-08-25T01:42:37.541Z,30.48
2022-08-25T01:45:05.516Z,24.75
2022-08-25T01:47:32.758Z,24.88
2022-08-25T01:49:59.493Z,24.48
2022-08-25T01:52:26.552Z,25.48
2022-08-25T01:54:53.737Z,24.48
2022-08-25T01:57:20.663Z,25.45
2022-08-25T01:59:47.963Z,27.33
2022-08-25T02:02:15.096Z,27.25
2022-08-25T02:04:45.375Z,23.92
2022-08-25T02:07:14.413Z,24.77
2022-08-25T02:09:41.797Z,25.92
2022-08-25T02:12:09.492Z,27.17
2022-08-25T02:14:37.718Z,25.77
2022-08-25T02:17:05.556Z,26.70
2022-08-25T02:19:32.414Z,23.65
2022-08-25T02:22:00.352Z,25.33
2022-08-25T02:24:27.469Z,25.05
2022-08-25T02:26:55.283Z,26.83
2022-08-25T02:29:22.716Z,26.75
2022-08-25T02:31:49.891Z,26.35
2022-08-25T02:34:17.227Z,27.83
2022-08-25T02:36:44.474Z,24.50
2022-08-25T02:39:12.182Z,24.08
2022-08-25T02:41:39.877Z,23.08
2022-08-25T02:44:08.375Z,22.15
2022-08-25T02:46:35.900Z,22.40
2022-08-25T02:49:03.057Z,22.88
2022-08-25T02:51:30.472Z,23.48
2022-08-25T02:53:59.260Z,23.10
2022-08-25T02:56:26.910Z,23.50
2022-08-25T02:58:53.744Z,21.38
2022-08-25T03:01:22.113Z,19.20
2022-08-25T03:03:56.192Z,21.95
2022-08-25T03:06:24.303Z,20.38
2022-08-25T03:08:53.049Z,20.15
2022-08-25T03:11:20.386Z,18.45
2022-08-25T03:13:51.109Z,18.58
2022-08-25T03:16:18.683Z,18.80
2022-08-25T03:18:45.815Z,17.40
2022-08-25T03:21:13.348Z,17.20
2022-08-25T03:23:42.680Z,17.50
2022-08-25T03:26:28.747Z,15.32
2022-08-25T03:28:55.880Z,18.75
2022-08-25T03:31:24.995Z,17.33
2022-08-25T03:33:52.227Z,15.10
2022-08-25T03:36:18.948Z,16.05
2022-08-25T03:38:46.042Z,16.88
2022-08-25T03:41:15.881Z,14.65
2022-08-25T03:46:10.350Z,13.98
2022-08-25T03:48:37.524Z,16.20
2022-08-25T03:51:04.412Z,14.25
2022-08-25T03:53:31.518Z,14.40
2022-08-25T03:55:58.705Z,13.52
2022-08-25T03:58:25.479Z,14.27
2022-08-25T04:00:52.213Z,13.82
2022-08-25T04:03:19.434Z,14.70
2022-08-25T04:05:46.903Z,14.98
2022-08-25T04:08:14.097Z,14.90
2022-08-25T04:10:41.180Z,12.90
2022-08-25T04:13:07.969Z,14.73
2022-08-25T04:15:35.331Z,14.25
2022-08-25T04:18:03.264Z,14.68
2022-08-25T04:20:30.189Z,12.88
2022-08-25T04:23:00.580Z,14.07
2022-08-25T04:25:27.667Z,14.77
2022-08-25T04:27:55.284Z,13.68
2022-08-25T04:30:22.450Z,15.38
2022-08-25T04:32:49.599Z,12.65
2022-08-25T04:35:16.652Z,14.05
2022-08-25T04:37:43.822Z,14.35
2022-08-25T04:40:11.334Z,13.70
2022-08-25T04:42:38.569Z,15.18
2022-08-25T04:45:06.530Z,14.50
2022-08-25T04:47:38.332Z,14.35
2022-08-25T04:50:06.763Z,12.38
2022-08-25T04:52:34.067Z,13.35
2022-08-25T04:55:01.238Z,15.40
2022-08-25T04:57:28.428Z,14.77
2022-08-25T04:59:55.587Z,13.23
2022-08-25T05:02:25.353Z,15.65
2022-08-25T05:04:52.498Z,13.98
2022-08-25T05:07:19.671Z,13.73
2022-08-25T05:09:46.777Z,13.65
2022-08-25T05:12:13.443Z,14.95
2022-08-25T05:14:40.666Z,16.27
2022-08-25T05:17:08.101Z,14.45
2022-08-25T05:19:36.151Z,13.77
2022-08-25T05:22:03.539Z,14.25
2022-08-25T05:24:30.933Z,12.25
2022-08-25T05:26:58.276Z,14.55
2022-08-25T05:29:25.741Z,16.75
2022-08-25T05:31:53.759Z,12.70
2022-08-25T05:34:21.583Z,15.70
2022-08-25T05:36:49.256Z,15.10
2022-08-25T05:39:16.407Z,16.13
2022-08-25T05:41:43.538Z,17.73
2022-08-25T05:44:12.595Z,14.77
2022-08-25T05:46:39.863Z,13.15
2022-08-25T05:49:06.998Z,16.42
2022-08-25T05:51:34.012Z,13.15
2022-08-25T05:54:01.146Z,12.18
2022-08-25T05:56:27.816Z,13.18
2022-08-25T05:58:55.191Z,14.20
2022-08-25T06:01:45.043Z,10.45
2022-08-25T06:04:14.833Z,11.13
2022-08-25T06:06:41.953Z,11.32
2022-08-25T06:09:10.271Z,12.00
2022-08-25T06:11:39.774Z,11.30
2022-08-25T06:14:07.513Z,11.65
2022-08-25T06:16:34.374Z,10.77
2022-08-25T06:19:01.486Z,12.10
2022-08-25T06:21:28.339Z,14.25
2022-08-25T06:23:55.947Z,11.70
2022-08-25T06:26:23.379Z,11.07
2022-08-25T06:28:51.445Z,10.63
2022-08-25T06:31:19.688Z,13.07
2022-08-25T06:33:47.277Z,10.85
2022-08-25T06:36:15.370Z,9.50
2022-08-25T06:38:42.689Z,10.13
2022-08-25T06:41:12.925Z,9.50
2022-08-25T06:43:48.168Z,9.15
2022-08-25T06:46:20.027Z,9.63
2022-08-25T06:48:49.013Z,8.90
2022-08-25T06:51:18.071Z,8.82
2022-08-25T06:53:46.338Z,8.63
2022-08-25T06:56:13.559Z,10.02
2022-08-25T06:58:40.392Z,9.55
2022-08-25T07:01:22.048Z,7.60
2022-08-25T07:06:19.741Z,9.75
2022-08-25T07:08:47.955Z,9.02
2022-08-25T07:11:16.614Z,8.95
2022-08-25T07:13:45.602Z,7.93
2022-08-25T07:16:15.261Z,9.48
2022-08-25T07:18:42.312Z,9.55
2022-08-25T07:21:12.324Z,7.80
2022-08-25T07:23:40.458Z,9.65
2022-08-25T07:29:12.060Z,9.82
2022-08-25T07:31:39.509Z,12.63
2022-08-25T07:34:26.085Z,7.43
2022-08-25T07:36:54.654Z,12.45
2022-08-25T07:39:22.584Z,8.63
2022-08-25T07:41:52.397Z,8.30
2022-08-25T07:44:24.241Z,8.50
2022-08-25T07:46:51.620Z,9.23
2022-08-25T07:49:23.091Z,9.00
2022-08-25T07:52:04.599Z,9.20
2022-08-25T07:54:35.080Z,7.63
2022-08-25T07:59:31.090Z,8.32
2022-08-25T08:02:16.091Z,10.23
2022-08-25T08:04:48.444Z,9.10
2022-08-25T08:07:27.667Z,8.35
2022-08-25T08:13:00.558Z,10.30
2022-08-25T08:15:29.597Z,9.13
2022-08-25T08:17:58.110Z,7.88
2022-08-25T08:22:53.222Z,8.40
2022-08-25T08:25:21.449Z,7.78
2022-08-25T08:27:55.122Z,9.05
2022-08-25T08:30:26.082Z,7.68
2022-08-25T08:33:09.233Z,6.90
2022-08-25T08:35:36.884Z,8.02
2022-08-25T08:38:03.848Z,8.57
2022-08-25T08:40:32.856Z,7.60
2022-08-25T08:43:07.333Z,7.05
2022-08-25T08:45:53.105Z,6.55
2022-08-25T08:48:45.590Z,8.68
2022-08-25T08:51:39.780Z,6.63
2022-08-25T08:54:20.601Z,8.23
2022-08-25T08:56:55.986Z,6.22
2022-08-25T08:59:30.447Z,10.15
2022-08-25T09:02:00.446Z,7.65
2022-08-25T09:04:40.202Z,8.50
2022-08-25T09:07:13.216Z,7.25
2022-08-25T09:09:41.976Z,8.05
2022-08-25T09:12:23.549Z,7.47
2022-08-25T09:15:12.775Z,7.32
2022-08-25T09:17:42.752Z,10.15
2022-08-25T09:20:38.724Z,7.18
2022-08-25T09:23:23.830Z,9.48
2022-08-25T09:26:11.873Z,8.80
2022-08-25T09:28:46.224Z,7.93
2022-08-25T09:31:19.054Z,7.07
2022-08-25T09:33:46.196Z,8.00
2022-08-25T09:36:14.477Z,9.02
2022-08-25T09:38:41.422Z,11.07
2022-08-25T09:41:09.004Z,7.90
2022-08-25T09:43:37.699Z,8.05
2022-08-25T09:49:16.972Z,11.20
2022-08-25T09:51:44.559Z,7.97
2022-08-25T09:54:15.155Z,6.80
2022-08-25T09:57:01.779Z,6.18
2022-08-25T09:59:35.689Z,7.85
2022-08-25T10:02:28.429Z,5.78
2022-08-25T10:04:55.867Z,6.38
2022-08-25T10:07:29.854Z,6.70
2022-08-25T10:10:02.359Z,6.20
2022-08-25T10:12:42.333Z,6.78
2022-08-25T10:15:29.042Z,6.22
2022-08-25T10:18:18.877Z,9.68
2022-08-25T10:21:07.844Z,6.18
2022-08-25T10:23:37.497Z,7.00
2022-08-25T10:26:11.755Z,9.43
2022-08-25T10:28:58.764Z,6.22
2022-08-25T10:31:41.451Z,7.95
2022-08-25T10:34:18.369Z,7.00
2022-08-25T10:36:59.085Z,6.95
2022-08-25T10:39:36.707Z,7.18
2022-08-25T10:42:39.951Z,7.10
2022-08-25T10:45:44.471Z,5.38
2022-08-25T10:48:29.743Z,9.80
2022-08-25T10:51:02.878Z,6.80
2022-08-25T10:53:47.822Z,6.55
2022-08-25T10:56:27.537Z,5.85
2022-08-25T10:58:59.841Z,8.13
2022-08-25T11:01:47.386Z,7.28
2022-08-25T11:04:42.137Z,6.70
2022-08-25T11:07:26.839Z,7.97
2022-08-25T11:09:58.936Z,6.68
2022-08-25T11:12:52.038Z,5.95
2022-08-25T11:18:14.521Z,6.30
2022-08-25T11:21:00.670Z,7.25
2022-08-25T11:23:33.838Z,6.25
2022-08-25T11:26:08.907Z,5.85
2022-08-25T11:28:50.862Z,7.32
2022-08-25T11:31:19.762Z,7.57
2022-08-25T11:33:46.683Z,6.32
2022-08-25T11:36:37.683Z,7.40
2022-08-25T11:39:55.807Z,7.45
2022-08-25T11:42:33.133Z,8.80
2022-08-25T11:45:30.503Z,7.43
2022-08-25T11:48:19.344Z,6.00
2022-08-25T11:50:57.224Z,8.43
2022-08-25T11:53:34.208Z,7.05
2022-08-25T11:56:10.561Z,6.03
2022-08-25T11:58:44.904Z,6.95
2022-08-25T12:01:40.578Z,7.45
2022-08-25T12:04:33.613Z,5.40
2022-08-25T12:07:06.927Z,5.65
2022-08-25T12:09:55.168Z,6.88
2022-08-25T12:12:31.904Z,6.47
2022-08-25T12:15:23.517Z,6.63
2022-08-25T12:18:11.395Z,6.53
2022-08-25T12:20:53.473Z,8.75
2022-08-25T12:23:37.650Z,5.65
2022-08-25T12:26:18.140Z,6.43
2022-08-25T12:28:51.463Z,8.10
2022-08-25T12:31:41.999Z,5.20
2022-08-25T12:34:35.159Z,5.95
2022-08-25T12:37:12.999Z,4.47
2022-08-25T12:40:04.668Z,8.68
2022-08-25T12:42:38.109Z,6.43
2022-08-25T12:45:14.816Z,6.88
2022-08-25T12:47:47.315Z,6.68
2022-08-25T12:50:42.321Z,4.82
2022-08-25T12:53:32.575Z,10.50
2022-08-25T12:56:39.143Z,6.50
2022-08-25T12:59:19.810Z,6.53
2022-08-25T13:02:21.162Z,6.07
2022-08-25T13:05:13.283Z,6.22
2022-08-25T13:08:17.915Z,6.00
2022-08-25T13:10:50.834Z,4.88
2022-08-25T13:13:45.811Z,4.70
2022-08-25T13:16:29.669Z,5.55
2022-08-25T13:18:59.360Z,5.60
2022-08-25T13:21:43.275Z,4.75
2022-08-25T13:24:17.488Z,4.90
2022-08-25T13:26:47.228Z,6.05
2022-08-25T13:29:28.407Z,6.68
2022-08-25T13:32:09.196Z,7.60
2022-08-25T13:34:42.916Z,8.73
2022-08-25T13:37:29.588Z,7.75
2022-08-25T13:40:25.875Z,6.78
2022-08-25T13:42:59.815Z,6.72
2022-08-25T13:45:34.621Z,7.78
2022-08-25T13:48:20.994Z,5.47
2022-08-25T13:50:51.735Z,5.18
2022-08-25T13:53:25.973Z,6.25
2022-08-25T13:55:58.884Z,5.43
2022-08-25T13:58:44.457Z,5.78
2022-08-25T14:01:22.181Z,5.72
2022-08-25T14:04:22.151Z,6.13
2022-08-25T14:07:04.611Z,6.40
2022-08-25T14:09:40.412Z,6.88
2022-08-25T14:12:08.882Z,6.07
2022-08-25T14:14:36.206Z,5.63
2022-08-25T14:17:22.276Z,4.93
2022-08-25T14:19:57.294Z,6.07
2022-08-25T14:22:24.255Z,5.35
2022-08-25T14:24:53.820Z,8.95
2022-08-25T14:27:21.084Z,6.95
2022-08-25T14:29:51.012Z,6.70
2022-08-25T14:32:24.074Z,5.97
2022-08-25T14:34:56.260Z,8.35
2022-08-25T14:37:25.465Z,6.25
2022-08-25T14:39:54.513Z,5.60
2022-08-25T14:42:22.476Z,5.95
2022-08-25T14:44:52.156Z,7.53
2022-08-25T14:47:20.482Z,5.28
2022-08-25T14:49:49.452Z,6.90
2022-08-25T14:52:22.479Z,8.25
2022-08-25T14:54:49.906Z,7.75
2022-08-25T14:57:16.846Z,6.82
2022-08-25T14:59:44.172Z,7.88
2022-08-25T15:02:18.491Z,6.38
2022-08-25T15:04:54.031Z,6.10
2022-08-25T15:07:39.634Z,5.45
2022-08-25T15:10:07.586Z,7.10
2022-08-25T15:12:46.923Z,5.70
2022-08-25T15:15:14.778Z,6.25
2022-08-25T15:17:44.441Z,6.70
2022-08-25T15:20:11.800Z,5.32
2022-08-25T15:22:38.732Z,11.43
2022-08-25T15:25:08.856Z,10.43
2022-08-25T15:27:36.715Z,7.80
2022-08-25T15:30:05.262Z,6.50
2022-08-25T15:32:33.811Z,6.78
2022-08-25T15:35:01.005Z,8.75
2022-08-25T15:37:27.892Z,7.53
2022-08-25T15:39:54.651Z,6.65
2022-08-25T15:42:21.788Z,6.93
2022-08-25T15:44:52.837Z,5.63
2022-08-25T15:47:21.020Z,8.70
2022-08-25T15:49:47.653Z,7.57
2022-08-25T15:52:14.355Z,7.72
2022-08-25T15:54:41.070Z,8.88
2022-08-25T15:57:09.116Z,6.07
2022-08-25T15:59:40.239Z,6.57
2022-08-25T16:02:14.830Z,8.43
2022-08-25T16:04:42.284Z,8.68
2022-08-25T16:07:09.584Z,8.90
2022-08-25T16:09:41.528Z,7.53
2022-08-25T16:12:08.879Z,6.43
2022-08-25T16:14:38.092Z,7.97
2022-08-25T16:17:05.910Z,5.93
2022-08-25T16:19:33.187Z,7.55
2022-08-25T16:22:02.563Z,9.35
2022-08-25T16:24:34.091Z,6.72
2022-08-25T16:27:11.793Z,9.55
2022-08-25T16:29:41.420Z,7.90
2022-08-25T16:32:09.817Z,8.05
2022-08-25T16:34:37.393Z,6.45
2022-08-25T16:37:06.126Z,7.93
2022-08-25T16:39:33.620Z,5.70
2022-08-25T16:42:00.303Z,7.82
2022-08-25T16:44:28.356Z,7.78
2022-08-25T16:46:55.301Z,8.45
2022-08-25T16:49:24.416Z,7.63
2022-08-25T16:51:57.131Z,7.50
2022-08-25T16:54:44.363Z,9.52
2022-08-25T16:57:11.660Z,9.45
2022-08-25T16:59:38.474Z,7.97
2022-08-25T17:02:06.441Z,8.88
2022-08-25T17:04:33.214Z,11.15
2022-08-25T17:07:00.447Z,10.32
2022-08-25T17:09:29.574Z,11.20
2022-08-25T17:11:57.086Z,10.73
2022-08-25T17:14:24.280Z,13.25
2022-08-25T17:16:54.502Z,9.88
2022-08-25T17:19:22.197Z,13.50
2022-08-25T17:24:18.003Z,9.77
2022-08-25T17:26:47.172Z,10.70
2022-08-25T17:29:14.286Z,10.18
2022-08-25T17:31:43.864Z,10.52
2022-08-25T17:34:16.558Z,9.57
2022-08-25T17:36:44.283Z,11.73
2022-08-25T17:39:14.061Z,12.52
2022-08-25T17:41:42.961Z,11.25
2022-08-25T17:44:09.647Z,9.18
2022-08-25T17:46:36.784Z,10.02
2022-08-25T17:49:04.462Z,11.95
2022-08-25T17:51:32.002Z,11.02
2022-08-25T17:53:59.252Z,11.18
2022-08-25T17:56:27.593Z,14.20
2022-08-25T17:58:55.848Z,11.40
2022-08-25T18:01:29.097Z,11.77
2022-08-25T18:03:59.252Z,10.98
2022-08-25T18:06:29.307Z,12.80
2022-08-25T18:08:59.729Z,17.35
2022-08-25T18:11:28.688Z,11.77
2022-08-25T18:13:56.020Z,13.63
2022-08-25T18:16:23.686Z,15.77
2022-08-25T18:18:52.888Z,13.52
2022-08-25T18:21:20.997Z,12.63
2022-08-25T18:23:49.493Z,13.65
2022-08-25T18:26:16.423Z,14.65
2022-08-25T18:28:43.922Z,11.63
2022-08-25T18:31:13.300Z,12.75
2022-08-25T18:33:44.330Z,14.38
2022-08-25T18:36:11.895Z,12.85
2022-08-25T18:38:58.509Z,14.43
2022-08-25T18:41:26.723Z,13.10
2022-08-25T18:43:53.567Z,19.85
2022-08-25T18:46:22.563Z,12.50
2022-08-25T18:48:52.851Z,14.20
2022-08-25T18:51:23.104Z,12.90
2022-08-25T18:53:51.088Z,16.10
2022-08-25T18:56:22.385Z,14.15
2022-08-25T18:58:49.543Z,15.13
2022-08-25T19:01:18.309Z,14.13
2022-08-25T19:03:46.013Z,18.98
2022-08-25T19:06:13.352Z,17.65
2022-08-25T19:08:41.795Z,19.08
2022-08-25T19:11:09.936Z,18.35
2022-08-25T19:13:37.991Z,19.00
2022-08-25T19:16:38.262Z,20.48
2022-08-25T19:19:06.800Z,23.35
2022-08-25T19:21:35.569Z,24.15
2022-08-25T19:24:03.229Z,22.98
2022-08-25T19:26:30.552Z,23.10
2022-08-25T19:28:58.082Z,24.90
2022-08-25T19:31:26.222Z,27.58
2022-08-25T19:33:54.831Z,24.95
2022-08-25T19:36:24.627Z,26.33
2022-08-25T19:38:58.158Z,30.02
2022-08-25T19:41:26.091Z,29.05
2022-08-25T19:43:56.729Z,31.23
2022-08-25T19:46:35.355Z,33.83
2022-08-25T19:49:13.038Z,33.95
2022-08-25T19:51:43.842Z,38.50
2022-08-25T19:54:13.806Z,33.30
2022-08-25T19:56:43.908Z,33.85
2022-08-25T19:59:36.595Z,31.98
2022-08-25T20:02:15.406Z,32.00
2022-08-25T20:04:49.370Z,34.38
2022-08-25T20:07:17.603Z,30.90
2022-08-25T20:09:45.391Z,31.80
2022-08-25T20:12:13.004Z,32.20
2022-08-25T20:14:40.455Z,30.02
2022-08-25T20:17:14.348Z,29.70
2022-08-25T20:19:50.138Z,27.23
2022-08-25T20:22:18.696Z,30.42
2022-08-25T20:24:50.935Z,33.30
2022-08-25T20:27:26.470Z,25.83
2022-08-25T20:29:53.596Z,29.30
2022-08-25T20:32:20.421Z,28.13
2022-08-25T20:34:48.919Z,27.70
2022-08-25T20:37:16.684Z,24.30
2022-08-25T20:39:43.924Z,25.33
2022-08-25T20:42:10.735Z,25.80
2022-08-25T20:44:41.906Z,25.38
2022-08-25T20:47:10.546Z,25.63
2022-08-25T20:49:39.440Z,25.45
2022-08-25T20:52:07.380Z,23.98
2022-08-25T20:54:34.634Z,22.27
2022-08-25T20:57:02.572Z,21.75
2022-08-25T20:59:29.967Z,24.23
2022-08-25T21:01:56.907Z,24.73
2022-08-25T21:04:26.407Z,23.58
2022-08-25T21:06:53.683Z,21.17
2022-08-25T21:09:23.163Z,24.75
2022-08-25T21:11:53.153Z,24.63
2022-08-25T21:14:21.017Z,20.95
2022-08-25T21:16:48.849Z,22.08
2022-08-25T21:19:17.587Z,20.02
2022-08-25T21:21:54.364Z,19.73
2022-08-25T21:24:28.328Z,20.85
2022-08-25T21:26:56.818Z,21.40
2022-08-25T21:29:25.964Z,16.92
2022-08-25T21:31:56.447Z,17.95
2022-08-25T21:34:23.613Z,16.58
2022-08-25T21:36:50.715Z,17.02
2022-08-25T21:39:17.658Z,15.60
2022-08-25T21:41:45.530Z,13.50
2022-08-25T21:44:13.775Z,11.63
2022-08-25T21:46:41.077Z,14.70
2022-08-25T21:49:09.014Z,12.52
2022-08-25T21:51:43.153Z,16.13
2022-08-25T21:54:14.925Z,15.55
2022-08-25T21:57:01.956Z,13.13
2022-08-25T21:59:31.392Z,14.20
2022-08-25T22:02:01.332Z,15.98
2022-08-25T22:04:29.447Z,12.45
2022-08-25T22:06:58.456Z,14.52
2022-08-25T22:09:26.561Z,13.73
2022-08-25T22:11:56.863Z,12.43
2022-08-25T22:14:27.777Z,13.23
2022-08-25T22:16:54.979Z,14.20
2022-08-25T22:19:22.807Z,11.13
2022-08-25T22:21:50.182Z,10.00
2022-08-25T22:24:18.279Z,12.07
2022-08-25T22:26:47.704Z,11.40
2022-08-25T22:29:20.743Z,8.13
2022-08-25T22:31:59.277Z,13.25
2022-08-25T22:34:32.467Z,11.95
2022-08-25T22:37:01.168Z,7.88
2022-08-25T22:39:28.446Z,7.60
2022-08-25T22:41:55.781Z,9.52
2022-08-25T22:44:23.182Z,9.30
2022-08-25T22:46:50.298Z,8.95
2022-08-25T22:49:20.411Z,9.18
2022-08-25T22:51:47.826Z,9.30
2022-08-25T22:54:16.378Z,9.50
2022-08-25T22:56:43.623Z,11.23
2022-08-25T22:59:13.040Z,7.28
2022-08-25T23:01:43.363Z,8.55
2022-08-25T23:06:38.127Z,13.82
2022-08-25T23:09:06.637Z,10.95
2022-08-25T23:11:35.492Z,7.78
2022-08-25T23:14:08.233Z,9.15
2022-08-25T23:16:35.477Z,10.43
2022-08-25T23:19:02.670Z,10.05
2022-08-25T23:21:49.023Z,7.85
2022-08-25T23:24:29.151Z,9.27
2022-08-25T23:27:01.910Z,8.40
2022-08-25T23:29:30.013Z,8.25
2022-08-25T23:31:57.823Z,7.90
2022-08-25T23:34:26.117Z,9.63
2022-08-25T23:36:53.266Z,7.30
2022-08-25T23:39:21.900Z,8.57
2022-08-25T23:41:49.656Z,10.68
2022-08-25T23:44:17.186Z,10.43
2022-08-25T23:46:44.940Z,11.98
2022-08-25T23:49:12.421Z,10.95
2022-08-25T23:51:40.977Z,9.00
2022-08-25T23:54:10.799Z,9.15
2022-08-25T23:56:42.462Z,7.57
2022-08-25T23:59:12.888Z,8.55
